Time,TemperatureF,DewpointF,PressureIn,WindDirection,WindDirectionDegrees,WindSpeedMPH,WindSpeedGustMPH,Humidity,HourlyPrecipIn,Conditions,Clouds,dailyrainin,SoftwareType,DateUTC
2013-05-15 00:01:00,71.9,54.9,29.91,SW,224,2.8,4.0,55,0.00,,,0.00,WeatherDisplay:10.37,2013-05-15 05:01:00,
2013-05-15 00:06:00,71.7,54.7,29.92,WSW,240,5.0,5.0,55,0.00,,,0.00,WeatherDisplay:10.37,2013-05-15 05:06:00,
2013-05-15 00:11:00,71.6,54.6,29.92,SSE,158,2.6,4.6,55,0.00,,,0.00,WeatherDisplay:10.37,2013-05-15 05:11:00,
2013-05-15 00:16:00,71.5,55.0,29.92,SW,226,4.2,4.2,56,0.00,,,0.00,WeatherDisplay:10.37,2013-05-15 05:16:00,
2013-05-15 00:21:00,71.4,54.9,29.92,SW,221,1.5,3.5,56,0.00,,,0.00,WeatherDisplay:10.37,2013-05-15 05:21:00,
2013-05-15 00:26:00,71.2,54.7,29.92,South,177,2.4,5.8,56,0.00,,,0.00,WeatherDisplay:10.37,2013-05-15 05:26:00,
2013-05-15 00:31:00,71.0,55.0,29.92,SSE,157,1.1,2.3,57,0.00,,,0.00,WeatherDisplay:10.37,2013-05-15 05:31:00,
2013-05-15 00:36:00,70.7,54.7,29.92,South,179,1.5,3.5,57,0.00,,,0.00,WeatherDisplay:10.37,2013-05-15 05:36:00,
2013-05-15 00:41:00,70.6,54.6,29.92,SSW,211,2.1,3.5,57,0.00,,,0.00,WeatherDisplay:10.37,2013-05-15 05:41:00,
2013-05-15 00:47:00,70.4,54.9,29.92,SSE,163,0.7,2.3,58,0.00,,,0.00,WeatherDisplay:10.37,2013-05-15 05:47:00,
2013-05-15 00:52:00,70.1,54.6,29.92,SSW,204,0.8,2.3,58,0.00,,,0.00,WeatherDisplay:10.37,2013-05-15 05:52:00,
2013-05-15 00:57:00,69.8,54.8,29.92,SSE,155,0.6,0.0,59,0.00,,,0.00,WeatherDisplay:10.37,2013-05-15 05:57:00,
2013-05-15 01:02:00,69.6,54.6,29.92,SSW,192,0.4,0.0,59,0.00,,,0.00,WeatherDisplay:10.37,2013-05-15 06:02:00,
2013-05-15 01:07:00,69.5,55.0,29.92,SSE,165,0.0,0.0,60,0.00,,,0.00,WeatherDisplay:10.37,2013-05-15 06:07:00,
2013-05-15 01:12:00,69.3,54.8,29.92,SSE,155,0.0,0.0,60,0.00,,,0.00,WeatherDisplay:10.37,2013-05-15 06:12:00,
2013-05-15 01:17:00,69.3,54.8,29.92,SSW,211,0.5,3.0,60,0.00,,,0.00,WeatherDisplay:10.37,2013-05-15 06:17:00,
2013-05-15 01:22:00,69.4,54.9,29.92,SW,224,1.4,3.5,60,0.00,,,0.00,WeatherDisplay:10.37,2013-05-15 06:22:00,
2013-05-15 01:27:00,69.4,54.9,29.93,South,190,0.8,3.5,60,0.00,,,0.00,WeatherDisplay:10.37,2013-05-15 06:27:00,
2013-05-15 01:32:00,69.4,54.9,29.92,SW,223,0.8,3.5,60,0.00,,,0.00,WeatherDisplay:10.37,2013-05-15 06:32:00,
2013-05-15 01:37:00,69.3,54.8,29.92,SSW,203,1.1,3.5,60,0.00,,,0.00,WeatherDisplay:10.37,2013-05-15 06:37:00,
2013-05-15 01:42:00,69.3,54.8,29.92,SSW,208,1.4,2.3,60,0.00,,,0.00,WeatherDisplay:10.37,2013-05-15 06:42:00,
2013-05-15 01:47:00,69.2,54.7,29.92,SSW,207,2.1,3.5,60,0.00,,,0.00,WeatherDisplay:10.37,2013-05-15 06:47:00,
2013-05-15 01:52:00,69.1,54.6,29.92,South,184,3.0,3.5,60,0.00,,,0.00,WeatherDisplay:10.37,2013-05-15 06:52:00,
2013-05-15 01:57:00,69.1,55.1,29.92,SSE,167,2.1,3.5,61,0.00,,,0.00,WeatherDisplay:10.37,2013-05-15 06:57:00,
2013-05-15 02:02:00,69.0,55.0,29.92,South,188,3.5,5.8,61,0.00,,,0.00,WeatherDisplay:10.37,2013-05-15 07:02:00,
2013-05-15 02:07:00,68.9,54.9,29.92,SSW,211,2.6,4.0,61,0.00,,,0.00,WeatherDisplay:10.37,2013-05-15 07:07:00,
2013-05-15 02:12:00,68.7,54.7,29.92,SW,215,2.9,5.0,61,0.00,,,0.00,WeatherDisplay:10.37,2013-05-15 07:12:00,
2013-05-15 02:17:00,68.6,54.6,29.92,SSW,208,3.5,5.8,61,0.00,,,0.00,WeatherDisplay:10.37,2013-05-15 07:17:00,
2013-05-15 02:22:00,68.6,54.6,29.92,South,170,3.2,5.8,61,0.00,,,0.00,WeatherDisplay:10.37,2013-05-15 07:22:00,
2013-05-15 02:27:00,68.4,54.4,29.92,SW,225,2.6,4.6,61,0.00,,,0.00,WeatherDisplay:10.37,2013-05-15 07:27:00,
2013-05-15 02:32:00,68.4,54.9,29.92,South,191,1.8,3.5,62,0.00,,,0.00,WeatherDisplay:10.37,2013-05-15 07:32:00,
2013-05-15 02:37:00,68.2,54.7,29.92,SW,218,4.0,5.8,62,0.00,,,0.00,WeatherDisplay:10.37,2013-05-15 07:37:00,
2013-05-15 02:42:00,68.1,54.6,29.92,SSW,207,2.1,4.6,62,0.00,,,0.00,WeatherDisplay:10.37,2013-05-15 07:42:00,
2013-05-15 02:47:00,67.9,54.4,29.91,South,170,3.7,6.9,62,0.00,,,0.00,WeatherDisplay:10.37,2013-05-15 07:47:00,
2013-05-15 02:52:00,67.9,54.4,29.91,SSW,197,3.9,4.6,62,0.00,,,0.00,WeatherDisplay:10.37,2013-05-15 07:52:00,
2013-05-15 02:57:00,67.7,54.6,29.91,SW,225,1.6,3.5,63,0.00,,,0.00,WeatherDisplay:10.37,2013-05-15 07:57:00,
2013-05-15 03:02:00,67.5,54.5,29.91,South,186,3.2,5.0,63,0.00,,,0.00,WeatherDisplay:10.37,2013-05-15 08:02:00,
2013-05-15 03:07:00,67.4,54.4,29.91,SSW,200,2.1,3.5,63,0.00,,,0.00,WeatherDisplay:10.37,2013-05-15 08:07:00,
2013-05-15 03:12:00,67.4,54.4,29.91,SW,226,3.6,5.8,63,0.00,,,0.00,WeatherDisplay:10.37,2013-05-15 08:12:00,
2013-05-15 03:17:00,67.2,54.2,29.91,SW,219,4.4,6.9,63,0.00,,,0.00,WeatherDisplay:10.37,2013-05-15 08:17:00,
2013-05-15 03:22:00,67.2,54.2,29.91,SW,215,4.1,6.9,63,0.00,,,0.00,WeatherDisplay:10.37,2013-05-15 08:22:00,
2013-05-15 03:27:00,67.0,54.0,29.91,SSW,194,2.9,4.6,63,0.00,,,0.00,WeatherDisplay:10.37,2013-05-15 08:27:00,
2013-05-15 03:32:00,66.9,53.9,29.91,SSW,198,2.6,4.6,63,0.00,,,0.00,WeatherDisplay:10.37,2013-05-15 08:32:00,
2013-05-15 03:37:00,66.7,53.7,29.91,South,180,2.4,4.6,63,0.00,,,0.00,WeatherDisplay:10.37,2013-05-15 08:37:00,
2013-05-15 03:42:00,66.7,53.7,29.91,South,191,1.4,3.5,63,0.00,,,0.00,WeatherDisplay:10.37,2013-05-15 08:42:00,
2013-05-15 03:47:00,66.3,53.3,29.91,SSW,195,0.7,3.5,63,0.00,,,0.00,WeatherDisplay:10.37,2013-05-15 08:47:00,
2013-05-15 03:52:00,66.0,53.5,29.91,SSW,194,1.9,3.0,64,0.00,,,0.00,WeatherDisplay:10.37,2013-05-15 08:52:00,
2013-05-15 03:57:00,65.9,53.4,29.91,South,172,2.0,3.5,64,0.00,,,0.00,WeatherDisplay:10.37,2013-05-15 08:57:00,
2013-05-15 04:02:00,65.8,53.3,29.91,SW,217,2.9,5.0,64,0.00,,,0.00,WeatherDisplay:10.37,2013-05-15 09:02:00,
2013-05-15 04:07:00,65.8,53.3,29.91,SW,214,1.2,3.5,64,0.00,,,0.00,WeatherDisplay:10.37,2013-05-15 09:07:00,
2013-05-15 04:12:00,65.7,53.2,29.91,SSE,160,2.0,4.6,64,0.00,,,0.00,WeatherDisplay:10.37,2013-05-15 09:12:00,
2013-05-15 04:17:00,65.7,53.2,29.91,South,170,2.3,4.6,64,0.00,,,0.00,WeatherDisplay:10.37,2013-05-15 09:17:00,
2013-05-15 04:22:00,65.6,52.7,29.91,SSW,194,2.0,4.0,63,0.00,,,0.00,WeatherDisplay:10.37,2013-05-15 09:22:00,
2013-05-15 04:27:00,65.6,52.7,29.91,SSW,208,3.5,5.0,63,0.00,,,0.00,WeatherDisplay:10.37,2013-05-15 09:27:00,
2013-05-15 04:32:00,65.7,52.3,29.91,SW,222,2.3,6.0,62,0.00,,,0.00,WeatherDisplay:10.37,2013-05-15 09:32:00,
2013-05-15 04:37:00,65.9,52.5,29.91,SSW,194,3.5,5.8,62,0.00,,,0.00,WeatherDisplay:10.37,2013-05-15 09:37:00,
2013-05-15 04:42:00,65.9,52.1,29.91,SW,231,3.7,6.9,61,0.00,,,0.00,WeatherDisplay:10.37,2013-05-15 09:42:00,
2013-05-15 04:47:00,65.9,52.1,29.91,SSW,210,3.0,5.0,61,0.00,,,0.00,WeatherDisplay:10.37,2013-05-15 09:47:00,
2013-05-15 04:52:00,65.9,52.1,29.91,SSE,165,3.9,5.8,61,0.00,,,0.00,WeatherDisplay:10.37,2013-05-15 09:52:00,
2013-05-15 04:57:00,65.7,52.3,29.91,South,184,1.3,3.0,62,0.00,,,0.00,WeatherDisplay:10.37,2013-05-15 09:57:00,
2013-05-15 05:02:00,65.7,52.3,29.91,South,190,3.2,5.8,62,0.00,,,0.00,WeatherDisplay:10.37,2013-05-15 10:02:00,
2013-05-15 05:07:00,65.6,52.2,29.91,SW,226,1.3,4.6,62,0.00,,,0.00,WeatherDisplay:10.37,2013-05-15 10:07:00,
2013-05-15 05:12:00,65.6,52.2,29.91,SW,217,3.3,5.8,62,0.00,,,0.00,WeatherDisplay:10.37,2013-05-15 10:12:00,
2013-05-15 05:17:00,65.5,52.1,29.91,South,187,2.2,4.6,62,0.00,,,0.00,WeatherDisplay:10.37,2013-05-15 10:17:00,
2013-05-15 05:22:00,65.6,51.8,29.91,SW,232,3.7,4.6,61,0.00,,,0.00,WeatherDisplay:10.37,2013-05-15 10:22:00,
2013-05-15 05:27:00,65.8,52.0,29.91,SW,217,2.4,6.0,61,0.00,,,0.00,WeatherDisplay:10.37,2013-05-15 10:27:00,
2013-05-15 05:32:00,65.8,52.0,29.91,SW,214,1.9,3.5,61,0.00,,,0.00,WeatherDisplay:10.37,2013-05-15 10:32:00,
2013-05-15 05:37:00,65.8,52.0,29.91,South,188,1.4,2.3,61,0.00,,,0.00,WeatherDisplay:10.37,2013-05-15 10:37:00,
2013-05-15 05:42:00,65.6,51.8,29.91,South,169,2.5,3.5,61,0.00,,,0.00,WeatherDisplay:10.37,2013-05-15 10:42:00,
2013-05-15 05:47:00,65.5,51.7,29.91,SW,218,2.4,4.0,61,0.00,,,0.00,WeatherDisplay:10.37,2013-05-15 10:47:00,
2013-05-15 05:52:00,65.5,51.7,29.91,SSW,197,2.5,5.8,61,0.00,,,0.00,WeatherDisplay:10.37,2013-05-15 10:52:00,
2013-05-15 05:57:00,65.4,52.0,29.91,SW,214,3.0,4.6,62,0.00,,,0.00,WeatherDisplay:10.37,2013-05-15 10:57:00,
2013-05-15 06:02:00,65.2,51.8,29.91,SSW,211,2.7,4.0,62,0.00,CLR,,0.00,WeatherDisplay:10.37,2013-05-15 11:02:00,
2013-05-15 06:07:00,65.1,51.8,29.91,SSW,208,3.4,4.6,62,0.00,CLR,,0.00,WeatherDisplay:10.37,2013-05-15 11:07:00,
2013-05-15 06:12:00,65.0,51.7,29.91,SSW,194,3.3,3.5,62,0.00,CLR,,0.00,WeatherDisplay:10.37,2013-05-15 11:12:00,
2013-05-15 06:18:00,65.1,51.8,29.92,SW,226,2.5,5.0,62,0.00,CLR,,0.00,WeatherDisplay:10.37,2013-05-15 11:18:00,
2013-05-15 06:24:00,65.1,51.8,29.92,SW,221,3.4,3.5,62,0.00,CLR,,0.00,WeatherDisplay:10.37,2013-05-15 11:24:00,
2013-05-15 06:29:00,65.1,52.2,29.92,SW,225,3.6,7.0,63,0.00,CLR,,0.00,WeatherDisplay:10.37,2013-05-15 11:29:00,
2013-05-15 06:34:00,65.1,52.2,29.92,SSW,193,0.7,4.6,63,0.00,CLR,,0.00,WeatherDisplay:10.37,2013-05-15 11:34:00,
2013-05-15 06:40:00,65.2,52.3,29.92,SE,139,2.7,3.5,63,0.00,CLR,,0.00,WeatherDisplay:10.37,2013-05-15 11:40:00,
2013-05-15 06:47:00,65.3,52.4,29.92,South,174,0.9,4.6,63,0.00,CLR,,0.00,WeatherDisplay:10.37,2013-05-15 11:47:00,
2013-05-15 06:52:00,65.4,52.5,29.93,SSW,195,2.1,3.5,63,0.00,CLR,,0.00,WeatherDisplay:10.37,2013-05-15 11:52:00,
2013-05-15 06:57:00,65.7,52.8,29.93,South,169,2.9,4.6,63,0.00,CLR,,0.00,WeatherDisplay:10.37,2013-05-15 11:57:00,
2013-05-15 07:03:00,66.0,53.0,29.93,SW,231,3.5,5.8,63,0.00,CLR,,0.00,WeatherDisplay:10.37,2013-05-15 12:03:00,
2013-05-15 07:08:00,66.2,53.2,29.93,SSW,198,4.0,6.9,63,0.00,CLR,,0.00,WeatherDisplay:10.37,2013-05-15 12:08:00,
2013-05-15 07:13:00,66.3,53.3,29.93,SE,136,2.0,3.5,63,0.00,CLR,,0.00,WeatherDisplay:10.37,2013-05-15 12:13:00,
2013-05-15 07:19:00,66.4,53.4,29.93,South,169,2.5,3.5,63,0.00,CLR,,0.00,WeatherDisplay:10.37,2013-05-15 12:19:00,
2013-05-15 07:25:00,66.6,54.0,29.93,SSW,200,1.5,2.3,64,0.00,CLR,,0.00,WeatherDisplay:10.37,2013-05-15 12:25:00,
2013-05-15 07:30:00,66.8,53.8,29.93,SW,219,2.4,4.6,63,0.00,CLR,,0.00,WeatherDisplay:10.37,2013-05-15 12:30:00,
2013-05-15 07:35:00,67.0,54.4,29.93,SW,233,1.6,4.0,64,0.00,CLR,,0.00,WeatherDisplay:10.37,2013-05-15 12:35:00,
2013-05-15 07:40:00,67.1,54.5,29.93,SW,226,1.9,3.5,64,0.00,CLR,,0.00,WeatherDisplay:10.37,2013-05-15 12:40:00,
2013-05-15 07:45:00,67.2,54.6,29.93,SW,221,1.7,3.5,64,0.00,CLR,,0.00,WeatherDisplay:10.37,2013-05-15 12:45:00,
2013-05-15 07:51:00,67.4,55.2,29.92,SSW,213,2.7,4.6,65,0.00,CLR,,0.00,WeatherDisplay:10.37,2013-05-15 12:51:00,
2013-05-15 07:56:00,67.4,55.2,29.92,South,180,3.4,4.6,65,0.00,CLR,,0.00,WeatherDisplay:10.37,2013-05-15 12:56:00,
2013-05-15 08:02:00,67.6,55.8,29.93,South,186,3.9,4.6,66,0.00,CLR,,0.00,WeatherDisplay:10.37,2013-05-15 13:02:00,
2013-05-15 08:07:00,67.9,56.1,29.93,SSW,211,0.6,2.3,66,0.00,CLR,,0.00,WeatherDisplay:10.37,2013-05-15 13:07:00,
2013-05-15 08:12:00,68.2,56.4,29.93,SW,219,2.5,3.5,66,0.00,CLR,,0.00,WeatherDisplay:10.37,2013-05-15 13:12:00,
2013-05-15 08:18:00,68.6,56.8,29.93,SSE,154,2.6,5.8,66,0.00,CLR,,0.00,WeatherDisplay:10.37,2013-05-15 13:18:00,
2013-05-15 08:23:00,68.8,56.6,29.92,SW,215,3.7,5.8,65,0.00,CLR,,0.00,WeatherDisplay:10.37,2013-05-15 13:23:00,
2013-05-15 08:28:00,69.1,56.8,29.92,SW,224,3.9,7.0,65,0.00,CLR,,0.00,WeatherDisplay:10.37,2013-05-15 13:28:00,
2013-05-15 08:33:00,69.3,57.0,29.92,SW,235,4.3,8.1,65,0.00,CLR,,0.00,WeatherDisplay:10.37,2013-05-15 13:33:00,
2013-05-15 08:38:00,69.5,57.2,29.92,SW,214,4.3,6.9,65,0.00,CLR,,0.00,WeatherDisplay:10.37,2013-05-15 13:38:00,
2013-05-15 08:44:00,70.1,57.8,29.92,SW,232,3.3,5.8,65,0.00,CLR,,0.00,WeatherDisplay:10.37,2013-05-15 13:44:00,
2013-05-15 08:49:00,70.2,57.9,29.92,WSW,239,7.6,8.0,65,0.00,CLR,,0.00,WeatherDisplay:10.37,2013-05-15 13:49:00,
2013-05-15 08:55:00,70.6,58.3,29.92,SSW,211,5.4,5.4,65,0.00,CLR,,0.00,WeatherDisplay:10.37,2013-05-15 13:55:00,
2013-05-15 09:00:00,71.0,59.1,29.92,SW,229,2.8,3.5,66,0.00,CLR,,0.00,WeatherDisplay:10.37,2013-05-15 14:00:00,
2013-05-15 09:05:00,71.2,59.3,29.92,WSW,239,4.5,13.8,66,0.00,CLR,,0.00,WeatherDisplay:10.37,2013-05-15 14:05:00,
2013-05-15 09:10:00,71.7,59.7,29.92,SSW,212,5.0,11.5,66,0.00,CLR,,0.00,WeatherDisplay:10.37,2013-05-15 14:10:00,
2013-05-15 09:16:00,72.2,60.2,29.92,SSW,202,3.4,5.8,66,0.00,CLR,,0.00,WeatherDisplay:10.37,2013-05-15 14:16:00,
2013-05-15 09:21:00,72.6,60.2,29.92,SSE,153,5.5,10.4,65,0.00,CLR,,0.00,WeatherDisplay:10.37,2013-05-15 14:21:00,
2013-05-15 09:26:00,72.7,60.3,29.92,WSW,257,2.0,3.5,65,0.00,CLR,,0.00,WeatherDisplay:10.37,2013-05-15 14:26:00,
2013-05-15 09:31:00,73.1,60.2,29.92,SSW,197,4.1,6.0,64,0.00,CLR,,0.00,WeatherDisplay:10.37,2013-05-15 14:31:00,
2013-05-15 09:37:00,73.5,61.4,29.92,SW,218,1.7,4.6,66,0.00,CLR,,0.00,WeatherDisplay:10.37,2013-05-15 14:37:00,
2013-05-15 09:43:00,73.3,60.4,29.92,South,177,9.1,11.5,64,0.00,CLR,,0.00,WeatherDisplay:10.37,2013-05-15 14:43:00,
2013-05-15 09:48:00,73.7,62.1,29.92,WNW,282,1.6,3.5,67,0.00,CLR,,0.00,WeatherDisplay:10.37,2013-05-15 14:48:00,
2013-05-15 09:53:00,74.2,61.7,29.91,SSW,203,7.0,10.4,65,0.00,CLR,,0.00,WeatherDisplay:10.37,2013-05-15 14:53:00,
2013-05-15 09:58:00,74.2,61.7,29.91,WSW,242,7.1,10.4,65,0.00,CLR,,0.00,WeatherDisplay:10.37,2013-05-15 14:58:00,
2013-05-15 10:03:00,74.5,62.0,29.91,SW,229,4.8,8.1,65,0.00,CLR,,0.00,WeatherDisplay:10.37,2013-05-15 15:03:00,
2013-05-15 10:08:00,74.4,61.4,29.91,SW,218,7.6,10.4,64,0.00,CLR,,0.00,WeatherDisplay:10.37,2013-05-15 15:08:00,
2013-05-15 10:14:00,74.7,62.1,29.91,South,169,1.4,3.5,65,0.00,CLR,,0.00,WeatherDisplay:10.37,2013-05-15 15:14:00,
2013-05-15 10:19:00,75.3,62.3,29.91,WSW,242,3.8,6.9,64,0.00,CLR,,0.00,WeatherDisplay:10.37,2013-05-15 15:19:00,
2013-05-15 10:24:00,75.3,62.3,29.91,SW,235,4.8,6.9,64,0.00,CLR,,0.00,WeatherDisplay:10.37,2013-05-15 15:24:00,
2013-05-15 10:30:00,75.8,62.8,29.92,SW,233,4.0,6.9,64,0.00,CLR,,0.00,WeatherDisplay:10.37,2013-05-15 15:30:00,
2013-05-15 10:35:00,76.6,63.5,29.91,SSW,207,2.5,5.8,64,0.00,CLR,,0.00,WeatherDisplay:10.37,2013-05-15 15:35:00,
2013-05-15 10:43:00,77.0,63.0,29.91,South,186,6.3,9.2,62,0.00,CLR,,0.00,WeatherDisplay:10.37,2013-05-15 15:43:00,
2013-05-15 10:48:00,76.8,64.1,29.91,West,262,1.1,4.6,65,0.00,CLR,,0.00,WeatherDisplay:10.37,2013-05-15 15:48:00,
2013-05-15 10:53:00,77.4,63.8,29.91,West,259,2.0,4.0,63,0.00,CLR,,0.00,WeatherDisplay:10.37,2013-05-15 15:53:00,
2013-05-15 10:58:00,77.9,63.8,29.90,SW,235,5.3,7.0,62,0.00,CLR,,0.00,WeatherDisplay:10.37,2013-05-15 15:58:00,
2013-05-15 11:04:00,77.9,63.8,29.91,SW,220,3.3,6.9,62,0.00,CLR,,0.00,WeatherDisplay:10.37,2013-05-15 16:04:00,
2013-05-15 11:09:00,78.5,64.4,29.91,SW,231,3.0,8.1,62,0.00,CLR,,0.00,WeatherDisplay:10.37,2013-05-15 16:09:00,
2013-05-15 11:15:00,78.5,64.4,29.91,South,186,4.8,6.9,62,0.00,CLR,,0.00,WeatherDisplay:10.37,2013-05-15 16:15:00,
2013-05-15 11:20:00,78.6,64.5,29.91,SW,226,2.7,5.8,62,0.00,CLR,,0.00,WeatherDisplay:10.37,2013-05-15 16:20:00,
2013-05-15 11:25:00,78.5,64.4,29.91,SW,226,10.0,14.0,62,0.00,CLR,,0.00,WeatherDisplay:10.37,2013-05-15 16:25:00,
2013-05-15 11:30:00,78.5,65.3,29.91,West,280,4.1,4.1,64,0.00,CLR,,0.00,WeatherDisplay:10.37,2013-05-15 16:30:00,
2013-05-15 11:35:00,79.3,65.6,29.91,SW,222,3.2,5.8,63,0.00,CLR,,0.00,WeatherDisplay:10.37,2013-05-15 16:35:00,
2013-05-15 11:41:00,78.7,65.0,29.90,SW,224,7.9,10.4,63,0.00,CLR,,0.00,WeatherDisplay:10.37,2013-05-15 16:41:00,
2013-05-15 11:46:00,78.7,65.0,29.91,SW,229,4.6,8.1,63,0.00,CLR,,0.00,WeatherDisplay:10.37,2013-05-15 16:46:00,
2013-05-15 11:51:00,79.3,66.5,29.90,WSW,252,0.8,3.0,65,0.00,CLR,,0.00,WeatherDisplay:10.37,2013-05-15 16:51:00,
2013-05-15 11:56:00,79.3,65.1,29.90,SW,231,5.0,8.1,62,0.00,CLR,,0.00,WeatherDisplay:10.37,2013-05-15 16:56:00,
2013-05-15 12:01:00,79.8,66.5,29.90,WSW,240,3.1,5.8,64,0.00,CLR,,0.00,WeatherDisplay:10.37,2013-05-15 17:01:00,
2013-05-15 12:07:00,79.9,65.7,29.90,SW,236,2.4,3.5,62,0.00,CLR,,0.00,WeatherDisplay:10.37,2013-05-15 17:07:00,
2013-05-15 12:12:00,79.8,65.6,29.90,SE,138,3.8,6.9,62,0.00,CLR,,0.00,WeatherDisplay:10.37,2013-05-15 17:12:00,
2013-05-15 12:18:00,80.3,65.6,29.90,WSW,245,8.3,10.4,61,0.00,CLR,,0.00,WeatherDisplay:10.37,2013-05-15 17:18:00,
2013-05-15 12:24:00,79.9,66.6,29.90,South,190,0.9,2.3,64,0.00,CLR,,0.00,WeatherDisplay:10.37,2013-05-15 17:24:00,
2013-05-15 12:29:00,80.2,66.0,29.90,SW,236,6.6,10.4,62,0.00,CLR,,0.00,WeatherDisplay:10.37,2013-05-15 17:29:00,
2013-05-15 12:34:00,80.2,66.0,29.89,ESE,120,4.5,6.9,62,0.00,CLR,,0.00,WeatherDisplay:10.37,2013-05-15 17:34:00,
2013-05-15 12:39:00,80.0,65.8,29.89,WSW,237,4.5,5.8,62,0.00,CLR,,0.00,WeatherDisplay:10.37,2013-05-15 17:39:00,
2013-05-15 12:45:00,80.5,66.7,29.89,SSW,205,2.2,5.8,63,0.00,CLR,,0.00,WeatherDisplay:10.37,2013-05-15 17:45:00,
2013-05-15 12:50:00,81.3,66.6,29.89,SSW,194,2.7,9.2,61,0.00,CLR,,0.00,WeatherDisplay:10.37,2013-05-15 17:50:00,
2013-05-15 12:55:00,81.3,66.6,29.88,West,267,2.8,6.9,61,0.00,CLR,,0.00,WeatherDisplay:10.37,2013-05-15 17:55:00,
2013-05-15 13:00:00,81.3,66.1,29.88,SSW,208,8.5,13.8,60,0.00,CLR,,0.00,WeatherDisplay:10.37,2013-05-15 18:00:00,
2013-05-15 13:06:00,80.8,66.6,29.88,WSW,249,3.8,6.9,62,0.00,CLR,,0.00,WeatherDisplay:10.37,2013-05-15 18:06:00,
2013-05-15 13:11:00,81.2,65.5,29.88,WNW,303,6.5,9.2,59,0.00,CLR,,0.00,WeatherDisplay:10.37,2013-05-15 18:11:00,
2013-05-15 13:16:00,80.7,66.0,29.87,SSW,207,3.2,5.8,61,0.00,CLR,,0.00,WeatherDisplay:10.37,2013-05-15 18:16:00,
2013-05-15 13:21:00,80.4,65.7,29.88,SSW,205,5.0,9.2,61,0.00,CLR,,0.00,WeatherDisplay:10.37,2013-05-15 18:21:00,
2013-05-15 13:26:00,80.2,66.0,29.88,SW,222,5.3,9.2,62,0.00,CLR,,0.00,WeatherDisplay:10.37,2013-05-15 18:26:00,
2013-05-15 13:31:00,80.6,66.4,29.88,SW,221,6.2,9.2,62,0.00,CLR,,0.00,WeatherDisplay:10.37,2013-05-15 18:31:00,
2013-05-15 13:36:00,80.5,66.3,29.88,SSW,205,3.5,9.2,62,0.00,CLR,,0.00,WeatherDisplay:10.37,2013-05-15 18:36:00,
2013-05-15 13:43:00,81.2,66.9,29.88,SSW,210,3.5,10.0,62,0.00,CLR,,0.00,WeatherDisplay:10.37,2013-05-15 18:43:00,
2013-05-15 13:48:00,80.2,66.0,29.88,SW,236,4.8,10.4,62,0.00,CLR,,0.00,WeatherDisplay:10.37,2013-05-15 18:48:00,
2013-05-15 13:53:00,80.3,66.6,29.87,SW,226,4.4,8.1,63,0.00,CLR,,0.00,WeatherDisplay:10.37,2013-05-15 18:53:00,
2013-05-15 13:58:00,80.3,67.0,29.87,WSW,253,4.1,8.1,64,0.00,CLR,,0.00,WeatherDisplay:10.37,2013-05-15 18:58:00,
2013-05-15 14:03:00,80.5,67.2,29.87,SSW,192,2.4,5.0,64,0.00,CLR,,0.00,WeatherDisplay:10.37,2013-05-15 19:03:00,
2013-05-15 14:09:00,79.9,66.6,29.87,SW,217,5.5,9.2,64,0.00,CLR,,0.00,WeatherDisplay:10.37,2013-05-15 19:09:00,
2013-05-15 14:14:00,79.7,66.4,29.87,SSW,208,3.6,6.0,64,0.00,CLR,,0.00,WeatherDisplay:10.37,2013-05-15 19:14:00,
2013-05-15 14:20:00,79.3,66.1,29.87,SSW,211,6.0,6.9,64,0.00,CLR,,0.00,WeatherDisplay:10.37,2013-05-15 19:20:00,
2013-05-15 14:26:00,79.6,66.8,29.87,SSE,155,2.9,4.6,65,0.00,CLR,,0.00,WeatherDisplay:10.37,2013-05-15 19:26:00,
2013-05-15 14:31:00,79.4,66.6,29.86,SW,214,3.9,8.1,65,0.00,CLR,,0.00,WeatherDisplay:10.37,2013-05-15 19:31:00,
2013-05-15 14:36:00,79.3,66.5,29.86,SW,228,5.6,6.9,65,0.00,CLR,,0.00,WeatherDisplay:10.37,2013-05-15 19:36:00,
2013-05-15 14:41:00,79.3,67.0,29.86,SW,236,4.4,6.9,66,0.00,CLR,,0.00,WeatherDisplay:10.37,2013-05-15 19:41:00,
2013-05-15 14:46:00,79.2,67.3,29.86,SSW,204,3.8,6.0,67,0.00,CLR,,0.00,WeatherDisplay:10.37,2013-05-15 19:46:00,
2013-05-15 14:53:00,78.8,67.3,29.86,WNW,283,1.2,3.5,68,0.00,CLR,,0.00,WeatherDisplay:10.37,2013-05-15 19:53:00,
2013-05-15 14:58:00,78.6,66.7,29.86,SSE,153,2.6,8.1,67,0.00,CLR,,0.00,WeatherDisplay:10.37,2013-05-15 19:58:00,
2013-05-15 15:03:00,78.5,66.6,29.86,West,270,3.2,6.9,67,0.00,CLR,,0.00,WeatherDisplay:10.37,2013-05-15 20:03:00,
2013-05-15 15:09:00,77.9,66.1,29.86,WSW,245,5.4,11.5,67,0.00,,,0.00,WeatherDisplay:10.37,2013-05-15 20:09:00,
2013-05-15 15:14:00,78.0,66.2,29.86,West,277,5.7,11.5,67,0.00,,,0.00,WeatherDisplay:10.37,2013-05-15 20:14:00,
2013-05-15 15:19:00,78.2,66.3,29.86,SW,236,2.6,5.8,67,0.00,,,0.00,WeatherDisplay:10.37,2013-05-15 20:19:00,
2013-05-15 15:25:00,78.6,65.8,29.85,West,273,3.6,5.8,65,0.00,,,0.00,WeatherDisplay:10.37,2013-05-15 20:25:00,
2013-05-15 15:30:00,78.7,65.9,29.85,SW,221,7.6,9.2,65,0.00,,,0.00,WeatherDisplay:10.37,2013-05-15 20:30:00,
2013-05-15 15:37:00,78.5,66.6,29.85,SW,223,1.8,6.0,67,0.00,,,0.00,WeatherDisplay:10.37,2013-05-15 20:37:00,
2013-05-15 15:42:00,78.1,65.8,29.85,SW,225,7.3,10.4,66,0.00,,,0.00,WeatherDisplay:10.37,2013-05-15 20:42:00,
2013-05-15 15:47:00,78.0,65.7,29.85,WSW,243,7.2,10.0,66,0.00,,,0.00,WeatherDisplay:10.37,2013-05-15 20:47:00,
2013-05-15 15:53:00,78.0,66.2,29.85,SW,233,3.0,5.8,67,0.00,,,0.00,WeatherDisplay:10.37,2013-05-15 20:53:00,
2013-05-15 15:58:00,77.9,66.1,29.85,WSW,240,0.3,1.1,67,0.00,,,0.00,WeatherDisplay:10.37,2013-05-15 20:58:00,
2013-05-15 16:03:00,77.9,66.5,29.85,SW,218,2.8,5.8,68,0.00,,,0.00,WeatherDisplay:10.37,2013-05-15 21:03:00,
2013-05-15 16:08:00,77.7,66.3,29.84,WSW,249,1.9,2.0,68,0.00,CLR,,0.00,WeatherDisplay:10.37,2013-05-15 21:08:00,
2013-05-15 16:13:00,77.3,65.9,29.85,WSW,250,5.2,8.1,68,0.00,CLR,,0.00,WeatherDisplay:10.37,2013-05-15 21:13:00,
2013-05-15 16:19:00,76.9,66.0,29.85,SSW,212,2.5,4.0,69,0.00,CLR,,0.00,WeatherDisplay:10.37,2013-05-15 21:19:00,
2013-05-15 16:24:00,76.6,66.1,29.84,WSW,252,2.4,5.8,70,0.00,CLR,,0.00,WeatherDisplay:10.37,2013-05-15 21:24:00,
2013-05-15 16:29:00,76.3,66.2,29.85,West,259,1.2,3.5,71,0.00,CLR,,0.00,WeatherDisplay:10.37,2013-05-15 21:29:00,
2013-05-15 16:35:00,75.9,66.2,29.85,West,273,2.1,3.5,72,0.00,CLR,,0.00,WeatherDisplay:10.37,2013-05-15 21:35:00,
2013-05-15 16:40:00,75.6,65.9,29.85,SSW,198,4.5,6.9,72,0.00,CLR,,0.00,WeatherDisplay:10.37,2013-05-15 21:40:00,
2013-05-15 16:46:00,75.5,65.8,29.84,SSW,207,3.4,8.0,72,0.00,CLR,,0.00,WeatherDisplay:10.37,2013-05-15 21:46:00,
2013-05-15 16:51:00,75.2,65.9,29.85,SW,224,2.8,3.5,73,0.00,CLR,,0.00,WeatherDisplay:10.37,2013-05-15 21:51:00,
2013-05-15 16:56:00,75.0,66.1,29.85,SSW,195,4.2,6.9,74,0.00,CLR,,0.00,WeatherDisplay:10.37,2013-05-15 21:56:00,
2013-05-15 17:01:00,74.8,66.0,29.85,SW,224,3.8,8.1,74,0.00,CLR,,0.00,WeatherDisplay:10.37,2013-05-15 22:01:00,
2013-05-15 17:06:00,74.6,65.8,29.85,SSW,210,6.5,8.1,74,0.00,CLR,,0.00,WeatherDisplay:10.37,2013-05-15 22:06:00,
2013-05-15 17:11:00,74.4,66.0,29.86,SW,232,3.4,4.0,75,0.00,CLR,,0.00,WeatherDisplay:10.37,2013-05-15 22:11:00,
2013-05-15 17:17:00,74.2,65.8,29.86,SW,215,3.5,5.8,75,0.00,CLR,,0.00,WeatherDisplay:10.37,2013-05-15 22:17:00,
2013-05-15 17:22:00,74.0,66.0,29.86,SSW,210,4.7,8.1,76,0.00,CLR,,0.00,WeatherDisplay:10.37,2013-05-15 22:22:00,
2013-05-15 17:27:00,73.8,65.8,29.86,WSW,243,3.4,6.9,76,0.00,CLR,,0.00,WeatherDisplay:10.37,2013-05-15 22:27:00,
2013-05-15 17:33:00,73.5,65.8,29.86,SW,222,2.0,3.5,77,0.00,CLR,,0.00,WeatherDisplay:10.37,2013-05-15 22:33:00,
2013-05-15 17:39:00,73.3,65.7,29.85,WSW,239,2.5,3.5,77,0.00,CLR,,0.00,WeatherDisplay:10.37,2013-05-15 22:39:00,
2013-05-15 17:44:00,73.1,65.8,29.86,SSW,211,3.5,7.0,78,0.00,CLR,,0.00,WeatherDisplay:10.37,2013-05-15 22:44:00,
2013-05-15 17:50:00,72.8,65.9,29.86,SW,232,3.5,4.6,79,0.00,CLR,,0.00,WeatherDisplay:10.37,2013-05-15 22:50:00,
2013-05-15 17:55:00,72.1,66.3,29.85,West,264,1.9,3.0,82,0.00,CLR,,0.00,WeatherDisplay:10.37,2013-05-15 22:55:00,
2013-05-15 18:00:00,71.4,66.0,29.86,WNW,297,4.8,7.0,83,0.00,CLR,,0.00,WeatherDisplay:10.37,2013-05-15 23:00:00,
2013-05-15 18:05:00,69.9,63.4,29.87,West,276,12.7,20.7,80,0.00,CLR,,0.00,WeatherDisplay:10.37,2013-05-15 23:05:00,
2013-05-15 18:11:00,67.6,62.6,29.86,WSW,243,5.6,8.1,84,0.01,RA,,0.01,WeatherDisplay:10.37,2013-05-15 23:11:00,
2013-05-15 18:16:00,66.6,62.9,29.86,West,270,2.3,6.9,88,0.01,RA,,0.01,WeatherDisplay:10.37,2013-05-15 23:16:00,
2013-05-15 18:21:00,66.0,62.7,29.87,WSW,257,3.8,5.8,89,0.01,CLR,,0.01,WeatherDisplay:10.37,2013-05-15 23:21:00,
2013-05-15 18:26:00,65.7,62.7,29.87,WSW,256,2.4,3.5,90,0.01,CLR,,0.01,WeatherDisplay:10.37,2013-05-15 23:26:00,
2013-05-15 18:31:00,65.4,62.4,29.87,West,264,3.0,5.8,90,0.01,CLR,,0.02,WeatherDisplay:10.37,2013-05-15 23:31:00,
2013-05-15 18:37:00,65.1,62.4,29.88,WNW,284,1.2,2.3,91,0.03,RA,,0.03,WeatherDisplay:10.37,2013-05-15 23:37:00,
2013-05-15 18:43:00,65.0,62.3,29.88,WNW,283,0.4,1.1,91,0.04,RA,,0.04,WeatherDisplay:10.37,2013-05-15 23:43:00,
2013-05-15 18:48:00,64.8,62.4,29.88,WSW,242,1.5,2.3,92,0.05,RA,,0.05,WeatherDisplay:10.37,2013-05-15 23:48:00,
2013-05-15 18:53:00,64.7,62.3,29.88,WSW,248,0.0,1.1,92,0.05,RA,,0.05,WeatherDisplay:10.37,2013-05-15 23:53:00,
2013-05-15 18:58:00,64.6,62.2,29.88,SSW,201,0.6,2.3,92,0.06,RA,,0.06,WeatherDisplay:10.37,2013-05-15 23:58:00,
2013-05-15 19:03:00,64.5,62.1,29.88,SW,236,0.5,1.1,92,0.06,RA,,0.06,WeatherDisplay:10.37,2013-05-16 00:03:00,
2013-05-15 19:09:00,64.5,62.4,29.87,WSW,257,0.0,0.0,93,0.07,RA,,0.08,WeatherDisplay:10.37,2013-05-16 00:09:00,
2013-05-15 19:15:00,64.5,62.4,29.87,WSW,257,0.0,0.0,93,0.08,RA,,0.10,WeatherDisplay:10.37,2013-05-16 00:15:00,
2013-05-15 19:20:00,64.4,62.3,29.87,WSW,257,0.0,0.0,93,0.10,RA,,0.11,WeatherDisplay:10.37,2013-05-16 00:20:00,
2013-05-15 19:25:00,64.3,62.2,29.87,WSW,257,0.0,0.0,93,0.11,RA,,0.12,WeatherDisplay:10.37,2013-05-16 00:25:00,
2013-05-15 19:32:00,64.2,62.4,29.87,East,82,0.2,1.1,94,0.11,RA,,0.13,WeatherDisplay:10.37,2013-05-16 00:32:00,
2013-05-15 19:37:00,64.2,62.4,29.86,ENE,61,1.1,1.1,94,0.11,RA,,0.14,WeatherDisplay:10.37,2013-05-16 00:37:00,
2013-05-15 19:43:00,64.1,62.3,29.86,East,89,0.0,0.0,94,0.10,RA,,0.14,WeatherDisplay:10.37,2013-05-16 00:43:00,
2013-05-15 19:48:00,64.0,62.5,29.85,ENE,62,1.1,2.3,95,0.09,CLR,,0.14,WeatherDisplay:10.37,2013-05-16 00:48:00,
2013-05-15 19:53:00,64.0,62.5,29.86,ESE,105,0.1,1.1,95,0.09,CLR,,0.14,WeatherDisplay:10.37,2013-05-16 00:53:00,
2013-05-15 19:58:00,64.0,62.5,29.86,NE,34,0.3,1.1,95,0.08,CLR,,0.14,WeatherDisplay:10.37,2013-05-16 00:58:00,
2013-05-15 20:04:00,64.0,62.5,29.86,ENE,75,1.0,2.3,95,0.08,CLR,,0.14,WeatherDisplay:10.37,2013-05-16 01:04:00,
2013-05-15 20:09:00,64.0,62.5,29.86,ENE,75,1.2,2.3,95,0.07,CLR,,0.14,WeatherDisplay:10.37,2013-05-16 01:09:00,
2013-05-15 20:15:00,63.9,62.4,29.86,East,82,0.0,0.0,95,0.05,CLR,,0.14,WeatherDisplay:10.37,2013-05-16 01:15:00,
2013-05-15 20:20:00,63.9,62.4,29.87,East,82,0.0,0.0,95,0.03,CLR,,0.14,WeatherDisplay:10.37,2013-05-16 01:20:00,
2013-05-15 20:25:00,63.9,62.4,29.87,East,82,0.0,0.0,95,0.02,CLR,,0.14,WeatherDisplay:10.37,2013-05-16 01:25:00,
2013-05-15 20:30:00,63.9,62.4,29.87,East,82,0.0,0.0,95,0.02,CLR,,0.14,WeatherDisplay:10.37,2013-05-16 01:30:00,
2013-05-15 20:35:00,63.8,62.3,29.87,East,82,0.0,0.0,95,0.00,CLR,,0.14,WeatherDisplay:10.37,2013-05-16 01:35:00,
2013-05-15 20:40:00,63.8,63.8,29.87,East,82,0.0,0.0,100,0.00,CLR,,0.14,WeatherDisplay:10.37,2013-05-16 01:40:00,
2013-05-15 20:45:00,63.8,63.8,29.87,East,82,0.0,0.0,100,0.00,,,0.14,WeatherDisplay:10.37,2013-05-16 01:45:00,
2013-05-15 20:50:00,63.7,63.7,29.86,East,82,0.0,0.0,100,0.00,,,0.14,WeatherDisplay:10.37,2013-05-16 01:50:00,
2013-05-15 20:56:00,63.6,63.6,29.87,East,82,0.0,0.0,100,0.00,,,0.14,WeatherDisplay:10.37,2013-05-16 01:56:00,
2013-05-15 21:01:00,63.5,63.5,29.87,East,82,0.0,0.0,100,0.00,,,0.14,WeatherDisplay:10.37,2013-05-16 02:01:00,
2013-05-15 21:06:00,63.5,63.5,29.87,East,82,0.0,0.0,100,0.00,,,0.14,WeatherDisplay:10.37,2013-05-16 02:06:00,
2013-05-15 21:11:00,63.4,63.4,29.87,East,89,0.0,0.0,100,0.00,,,0.14,WeatherDisplay:10.37,2013-05-16 02:11:00,
2013-05-15 21:17:00,63.3,63.3,29.87,East,91,0.0,1.1,100,0.00,,,0.14,WeatherDisplay:10.37,2013-05-16 02:17:00,
2013-05-15 21:23:00,63.3,63.3,29.88,East,91,0.0,0.0,100,0.00,,,0.14,WeatherDisplay:10.37,2013-05-16 02:23:00,
2013-05-15 21:28:00,63.3,63.3,29.87,East,91,0.0,0.0,100,0.00,,,0.14,WeatherDisplay:10.37,2013-05-16 02:28:00,
2013-05-15 21:33:00,63.3,63.3,29.87,ESE,105,0.0,2.3,100,0.00,,,0.14,WeatherDisplay:10.37,2013-05-16 02:33:00,
2013-05-15 21:38:00,63.2,63.2,29.87,East,84,0.2,0.0,100,0.00,,,0.14,WeatherDisplay:10.37,2013-05-16 02:38:00,
2013-05-15 21:43:00,63.2,63.2,29.87,ESE,107,0.0,0.0,100,0.00,,,0.14,WeatherDisplay:10.37,2013-05-16 02:43:00,
2013-05-15 21:50:00,63.1,63.1,29.87,ESE,104,0.0,0.0,100,0.00,,,0.14,WeatherDisplay:10.37,2013-05-16 02:50:00,
2013-05-15 21:55:00,63.1,63.1,29.87,ESE,114,0.0,1.1,100,0.00,,,0.14,WeatherDisplay:10.37,2013-05-16 02:55:00,
2013-05-15 22:00:00,63.0,63.0,29.87,East,96,0.0,1.1,100,0.00,,,0.14,WeatherDisplay:10.37,2013-05-16 03:00:00,
2013-05-15 22:05:00,63.0,63.0,29.87,East,94,0.1,0.0,100,0.00,,,0.14,WeatherDisplay:10.37,2013-05-16 03:05:00,
2013-05-15 22:10:00,62.9,62.9,29.87,East,85,0.0,0.0,100,0.00,,,0.14,WeatherDisplay:10.37,2013-05-16 03:10:00,
2013-05-15 22:16:00,62.8,62.8,29.87,East,85,0.0,0.0,100,0.00,,,0.14,WeatherDisplay:10.37,2013-05-16 03:16:00,
2013-05-15 22:21:00,62.8,62.8,29.87,ESE,104,0.0,0.0,100,0.00,,,0.14,WeatherDisplay:10.37,2013-05-16 03:21:00,
2013-05-15 22:27:00,62.8,62.8,29.87,East,82,0.0,0.0,100,0.00,,,0.14,WeatherDisplay:10.37,2013-05-16 03:27:00,
2013-05-15 22:32:00,62.7,62.7,29.87,East,98,0.0,1.1,100,0.00,,,0.14,WeatherDisplay:10.37,2013-05-16 03:32:00,
2013-05-15 22:37:00,62.7,62.7,29.86,East,87,0.2,1.1,100,0.00,,,0.14,WeatherDisplay:10.37,2013-05-16 03:37:00,
2013-05-15 22:43:00,62.7,62.7,29.86,ESE,107,0.2,1.1,100,0.00,,,0.14,WeatherDisplay:10.37,2013-05-16 03:43:00,
2013-05-15 22:48:00,62.8,62.8,29.86,East,79,0.6,1.1,100,0.00,,,0.14,WeatherDisplay:10.37,2013-05-16 03:48:00,
2013-05-15 22:53:00,62.8,62.8,29.85,East,87,0.6,1.1,100,0.00,,,0.14,WeatherDisplay:10.37,2013-05-16 03:53:00,
2013-05-15 22:58:00,62.8,62.8,29.85,East,79,0.0,0.0,100,0.00,,,0.14,WeatherDisplay:10.37,2013-05-16 03:58:00,
2013-05-15 23:01:00,62.8,62.8,29.85,East,79,0.0,0.0,100,0.00,,,0.14,WeatherDisplay:10.37,2013-05-16 04:01:00,
2013-05-15 23:06:00,62.8,62.8,29.85,East,87,0.1,1.1,100,0.00,,,0.14,WeatherDisplay:10.37,2013-05-16 04:06:00,
2013-05-15 23:11:00,62.8,62.8,29.84,ESE,105,0.0,1.1,100,0.00,,,0.14,WeatherDisplay:10.37,2013-05-16 04:11:00,
2013-05-15 23:16:00,62.8,62.8,29.84,ESE,103,0.6,2.3,100,0.00,,,0.14,WeatherDisplay:10.37,2013-05-16 04:16:00,
2013-05-15 23:21:00,63.0,63.0,29.84,ENE,76,0.7,2.3,100,0.00,,,0.14,WeatherDisplay:10.37,2013-05-16 04:21:00,
2013-05-15 23:26:00,63.0,63.0,29.83,East,92,0.8,2.3,100,0.00,,,0.14,WeatherDisplay:10.37,2013-05-16 04:26:00,
2013-05-15 23:31:00,63.0,63.0,29.84,East,100,0.0,2.3,100,0.00,,,0.14,WeatherDisplay:10.37,2013-05-16 04:31:00,
2013-05-15 23:36:00,63.0,63.0,29.84,East,81,0.0,2.3,100,0.00,,,0.14,WeatherDisplay:10.37,2013-05-16 04:36:00,
2013-05-15 23:41:00,63.0,63.0,29.84,East,81,0.0,0.0,100,0.00,,,0.14,WeatherDisplay:10.37,2013-05-16 04:41:00,
2013-05-15 23:46:00,63.2,63.2,29.84,East,81,0.0,0.0,100,0.00,,,0.14,WeatherDisplay:10.37,2013-05-16 04:46:00,
2013-05-15 23:51:00,63.3,63.3,29.83,East,83,0.0,1.1,100,0.00,,,0.14,WeatherDisplay:10.37,2013-05-16 04:51:00,
2013-05-15 23:56:00,63.3,63.3,29.83,East,88,0.0,0.0,100,0.00,,,0.14,WeatherDisplay:10.37,2013-05-16 04:56:00,